Rechercher aéroport 
image banner adimage banner adimage banner ad
image banner ad

CN53 - Kings County Houston Ave

Situé à Hanford, United States

ICAO - CN53, IATA -

Données fournies par Airmate  

Information générale

Coordonnées: N36°17'60" W119°35'41"
Élévation : 239 feet MSL.
 
Voir autres Aéroports à California

Données opérationnelles

Special qualification required
Heure actuelle UTC:
Heure actuelle locale:
Météo à : KHJO - Hanford Muni ( 3 km )
METAR: KHJO 020453Z AUTO 28009KT 10SM CLR 32/06 A2996 RMK AO2 SLP144 T03220061
Voir NOTAMs / SUP AIP / TFR affectant cet aéroport [VIEW]
Fréquences de communication: [VIEW]

Pistes:

Coordonnées de l'aéroport

Adresse: Hanford United States

Vue satellite de CN53